aviador You're here:

OBBI Decoded Metar

BAHRAIN in BAHRAIN
Report Time2017-09-23 18:00:00
UTC Time2017-09-23 18:22:22
Flight Rules vfr VFR
WindVRB at 02 kt
Visibility9999 m
Phenomena:N/A
Clouds:N/A
Expected CloudBase > 3,200 ft AGL from Temp-Dew spread
CeilingNone
Temp33°C (ISA +18)
Dew Point25°C (63% RH)
Heat Index40.6°C
QNH1007 hPa
Density Alt2,674 ft
Elevation7 ft
Report Wrong Elevation
Raw Report
METAR OBBI 231800Z VRB02KT CAVOK 33/25 Q1007 NOSIG=

Extra information for OBBI:More info

Metar Taf Metar & Taf Last 4 Metars F.Rules Stats Wind Profile Meteogram Temp Stats Airport Information Weather charts Add Link Nearby VenuesMetar ALERT Operation Metar Decoded Social comments